Time;durP1;ratioP1;P1;durP2;ratioP2;P2;SDS_P1;SDS_P2;PMS_P1;PMS_P2;Temp;Humidity;BMP_temperature;BMP_pressure;BME280_temperature;BME280_humidity;BME280_pressure;Samples;Min_cycle;Max_cycle;Signal;HPM_P1;HPM_P2
2022/11/09 00:01:26;;;;;;;30.42;13.45;;;;;;;7.76;83.95;98941.34;5000088;28;20048;-64
2022/11/09 00:03:56;;;;;;;31.38;13.77;;;;;;;7.73;84.36;98933.88;4999883;28;20081;-64
2022/11/09 00:06:23;;;;;;;26.45;13.40;;;;;;;7.77;84.42;98948.22;5015973;28;20045;-64
2022/11/09 00:08:48;;;;;;;29.48;13.25;;;;;;;7.78;84.36;98944.56;5033659;28;20048;-66
2022/11/09 00:11:14;;;;;;;29.70;13.13;;;;;;;7.72;84.14;98942.84;5015879;28;20128;-64
2022/11/09 00:13:41;;;;;;;25.17;13.55;;;;;;;7.79;84.41;98958.53;5034086;28;20111;-64
2022/11/09 00:16:09;;;;;;;27.50;13.93;;;;;;;7.80;84.22;98950.41;5015889;28;20053;-64
2022/11/09 00:18:36;;;;;;;24.52;12.13;;;;;;;7.84;84.15;98958.66;5015853;28;20341;-64
2022/11/09 00:21:10;;;;;;;28.88;13.20;;;;;;;7.79;84.25;98950.63;5015824;28;20088;-65
2022/11/09 00:23:35;;;;;;;30.02;13.35;;;;;;;7.77;84.26;98947.44;4983500;28;20076;-65
2022/11/09 00:26:06;;;;;;;27.10;14.13;;;;;;;7.72;84.43;98945.47;5015913;28;20042;-64
2022/11/09 00:28:32;;;;;;;25.40;12.95;;;;;;;7.79;84.98;98956.72;5033802;28;20049;-64
2022/11/09 00:31:07;;;;;;;31.23;13.95;;;;;;;7.86;84.61;98960.03;5015637;28;20115;-65
2022/11/09 00:33:33;;;;;;;26.30;13.20;;;;;;;7.80;84.46;98954.91;5015745;28;20594;-65
2022/11/09 00:36:09;;;;;;;24.77;13.02;;;;;;;7.77;84.83;98953.50;4999562;28;20140;-64
2022/11/09 00:38:35;;;;;;;25.48;12.70;;;;;;;7.81;84.64;98953.84;4983597;28;20081;-65
2022/11/09 00:41:02;;;;;;;24.23;12.25;;;;;;;7.82;84.63;98945.69;4998969;28;20071;-64
2022/11/09 00:43:31;;;;;;;23.20;12.82;;;;;;;7.84;84.82;98951.56;5016065;28;20049;-64
2022/11/09 00:45:56;;;;;;;28.02;12.60;;;;;;;7.80;85.21;98957.53;4998641;28;20091;-63
2022/11/09 00:48:22;;;;;;;28.70;13.35;;;;;;;7.81;85.09;98959.13;5015297;28;20572;-66
2022/11/09 00:50:52;;;;;;;28.48;12.85;;;;;;;7.81;84.81;98957.28;5015233;28;20034;-64
2022/11/09 00:53:18;;;;;;;24.77;12.57;;;;;;;7.86;84.72;98960.03;5015334;28;20050;-65
2022/11/09 00:56:03;;;;;;;25.50;13.02;;;;;;;7.82;84.98;98961.53;5015213;28;20053;-64
2022/11/09 00:58:32;;;;;;;25.38;12.48;;;;;;;7.80;85.29;98960.97;4998843;28;20073;-65
2022/11/09 01:00:59;;;;;;;26.08;12.38;;;;;;;7.83;85.27;98960.50;5015052;28;20050;-63
2022/11/09 01:03:25;;;;;;;26.33;12.43;;;;;;;7.83;85.33;98965.78;5015404;28;20423;-65
2022/11/09 01:05:51;;;;;;;22.70;12.57;;;;;;;7.84;85.08;98962.09;4998591;28;20494;-63
2022/11/09 01:08:18;;;;;;;23.95;12.27;;;;;;;7.90;85.30;98963.03;5014514;28;20071;-65
2022/11/09 01:10:46;;;;;;;25.75;11.73;;;;;;;7.92;84.98;98961.75;5014875;28;20180;-64
2022/11/09 01:13:14;;;;;;;23.85;11.52;;;;;;;7.93;85.08;98962.56;4998194;28;20037;-65
2022/11/09 01:15:48;;;;;;;22.25;10.82;;;;;;;7.93;85.25;98962.56;4982688;28;20127;-63
2022/11/09 01:18:15;;;;;;;22.95;12.23;;;;;;;7.95;84.87;98966.59;5030954;28;20128;-64
2022/11/09 01:20:42;;;;;;;20.70;10.68;;;;;;;7.97;84.76;98963.69;4998333;28;20038;-64
2022/11/09 01:23:09;;;;;;;22.45;11.63;;;;;;;7.96;85.25;98970.03;5032653;28;20453;-64
2022/11/09 01:25:35;;;;;;;22.25;11.80;;;;;;;7.99;85.25;98964.28;4998676;28;20107;-65
2022/11/09 01:28:01;;;;;;;21.00;11.50;;;;;;;8.00;85.23;98973.81;5014640;28;20045;-64
2022/11/09 01:30:27;;;;;;;22.73;11.80;;;;;;;8.04;85.09;98968.88;4998110;28;20037;-67
2022/11/09 01:32:53;;;;;;;25.20;12.30;;;;;;;8.00;85.13;98970.34;4998588;28;20069;-63
2022/11/09 01:35:19;;;;;;;20.17;10.90;;;;;;;7.99;84.96;98963.47;5030867;28;20065;-64
2022/11/09 01:37:44;;;;;;;22.27;11.48;;;;;;;8.02;85.26;98969.09;5014672;28;20522;-64
2022/11/09 01:40:11;;;;;;;25.50;12.55;;;;;;;8.00;84.77;98973.00;5014407;28;20045;-65
2022/11/09 01:42:38;;;;;;;23.75;12.07;;;;;;;8.02;84.74;98969.09;5014633;28;20466;-67
2022/11/09 01:45:16;;;;;;;25.45;12.02;;;;;;;8.03;84.92;98977.81;5014290;28;20133;-65
2022/11/09 01:47:43;;;;;;;26.60;13.60;;;;;;;8.10;84.50;98975.88;5014448;28;20052;-64
2022/11/09 01:50:09;;;;;;;26.63;14.10;;;;;;;8.07;84.56;98976.34;5014243;28;20046;-64
2022/11/09 01:52:39;;;;;;;25.02;12.77;;;;;;;8.06;84.74;98983.47;4981446;28;20090;-65
2022/11/09 01:55:10;;;;;;;27.13;12.65;;;;;;;8.08;84.88;98986.66;4998175;28;20082;-65
2022/11/09 01:57:43;;;;;;;26.43;13.53;;;;;;;8.08;84.89;98989.28;4997271;28;20414;-65
2022/11/09 02:00:12;;;;;;;22.42;12.18;;;;;;;8.04;84.95;98990.00;5013766;28;20514;-65
2022/11/09 02:03:12;;;;;;;24.20;12.38;;;;;;;8.05;85.49;98988.94;5014289;28;20052;-66
2022/11/09 02:05:39;;;;;;;29.50;13.73;;;;;;;8.08;84.92;98986.66;5023213;28;20503;-65
2022/11/09 02:08:06;;;;;;;28.90;13.55;;;;;;;8.10;85.17;98987.22;5030487;28;20077;-65
2022/11/09 02:10:39;;;;;;;28.75;13.07;;;;;;;8.07;84.86;98984.25;4997837;28;20426;-66
2022/11/09 02:13:06;;;;;;;28.75;13.73;;;;;;;8.10;85.65;98989.06;4997228;28;20037;-65
2022/11/09 02:15:56;;;;;;;24.15;12.23;;;;;;;8.13;84.81;98992.03;4990469;28;20064;-66
2022/11/09 02:18:21;;;;;;;25.95;13.40;;;;;;;8.14;85.25;98988.38;4997684;28;20049;-64
2022/11/09 02:20:49;;;;;;;27.88;13.38;;;;;;;8.12;85.16;98992.28;4981340;28;20041;-66
2022/11/09 02:23:15;;;;;;;27.58;14.02;;;;;;;8.15;85.03;98999.75;4997421;28;20042;-66
2022/11/09 02:25:44;;;;;;;25.30;12.48;;;;;;;8.14;85.31;98996.28;5013615;28;20052;-66
2022/11/09 02:28:10;;;;;;;29.17;13.52;;;;;;;8.13;85.40;98991.25;4997224;28;20053;-66
2022/11/09 02:30:36;;;;;;;23.55;13.20;;;;;;;8.26;84.77;99004.19;5013521;28;20041;-67
2022/11/09 02:33:01;;;;;;;26.60;13.60;;;;;;;8.25;84.80;98994.69;4997218;28;20041;-67
2022/11/09 02:35:27;;;;;;;28.35;13.18;;;;;;;8.22;85.17;99003.06;5031332;28;20045;-68
2022/11/09 02:37:53;;;;;;;26.02;13.77;;;;;;;8.24;84.78;99008.13;5014115;28;20037;-65
2022/11/09 02:40:22;;;;;;;25.65;11.68;;;;;;;8.27;84.74;99005.03;5014280;28;20525;-65
2022/11/09 02:42:48;;;;;;;24.83;12.93;;;;;;;8.27;84.73;99012.94;5013794;28;20049;-65
2022/11/09 02:45:14;;;;;;;23.38;11.98;;;;;;;8.20;84.69;99013.84;5031057;28;20045;-64
2022/11/09 02:47:41;;;;;;;21.85;10.80;;;;;;;8.23;85.08;99002.00;5013542;28;20573;-64
2022/11/09 02:50:07;;;;;;;21.08;12.23;;;;;;;8.23;84.45;98994.09;5031388;28;20041;-65
2022/11/09 02:52:32;;;;;;;18.45;11.27;;;;;;;8.30;85.23;99001.91;5013703;28;20128;-66
2022/11/09 02:54:58;;;;;;;23.30;12.05;;;;;;;8.26;84.51;99008.69;5013701;28;20545;-65
2022/11/09 02:57:24;;;;;;;22.48;12.07;;;;;;;8.28;84.98;99014.53;4996242;28;20049;-65
2022/11/09 02:59:50;;;;;;;23.58;11.50;;;;;;;8.29;85.00;99016.94;5013219;28;20045;-65
2022/11/09 03:02:16;;;;;;;26.27;12.93;;;;;;;8.28;85.50;99014.53;5013302;28;20424;-66
2022/11/09 03:04:41;;;;;;;26.83;12.32;;;;;;;8.33;85.10;99012.81;4997482;28;20534;-65
2022/11/09 03:07:08;;;;;;;22.25;11.27;;;;;;;8.32;85.07;99008.53;4996911;28;20049;-67
2022/11/09 03:09:35;;;;;;;21.52;11.75;;;;;;;8.31;84.82;99022.78;5030430;28;20056;-65
2022/11/09 03:12:27;;;;;;;26.95;12.52;;;;;;;8.26;84.95;99016.59;5034766;28;20040;-65
2022/11/09 03:14:50;;;;;;;27.42;13.95;;;;;;;8.25;85.13;99015.00;5034789;28;20091;-65
2022/11/09 03:17:17;;;;;;;21.35;12.10;;;;;;;8.11;85.58;99012.59;5017225;28;20033;-65
2022/11/09 03:19:43;;;;;;;21.50;11.25;;;;;;;8.26;85.68;99014.75;5016981;28;20037;-66
2022/11/09 03:22:10;;;;;;;19.15;11.05;;;;;;;8.33;84.83;99019.94;5000425;28;20198;-66
2022/11/09 03:24:35;;;;;;;21.20;11.27;;;;;;;8.37;85.23;99023.72;5016944;28;20135;-66
2022/11/09 03:27:01;;;;;;;19.65;11.43;;;;;;;8.31;84.54;99006.94;5016846;28;20045;-65
2022/11/09 03:29:28;;;;;;;21.60;10.75;;;;;;;8.38;85.01;99022.66;5016752;28;20094;-66
2022/11/09 03:31:54;;;;;;;22.67;11.90;;;;;;;8.38;84.23;99018.25;4984137;28;20037;-63
2022/11/09 03:34:20;;;;;;;22.88;11.52;;;;;;;8.41;84.84;99023.06;5000278;28;20048;-64
2022/11/09 03:36:46;;;;;;;23.08;12.20;;;;;;;8.40;84.53;99015.34;5016694;28;20399;-65
2022/11/09 03:39:11;;;;;;;18.95;10.85;;;;;;;8.42;84.72;99023.84;5013900;28;20395;-64
2022/11/09 03:41:37;;;;;;;21.83;11.60;;;;;;;8.43;84.52;99033.38;5016527;28;20071;-65
2022/11/09 03:44:03;;;;;;;21.42;11.70;;;;;;;8.44;84.97;99028.91;5000343;28;20199;-65
2022/11/09 03:46:28;;;;;;;24.23;11.77;;;;;;;8.47;84.46;99025.78;5016355;28;20048;-64
2022/11/09 03:48:55;;;;;;;23.23;11.38;;;;;;;8.45;84.75;99030.53;5000217;28;20044;-63
2022/11/09 03:51:20;;;;;;;22.35;13.40;;;;;;;8.42;84.68;99029.13;5016396;28;20541;-64
2022/11/09 03:53:46;;;;;;;22.80;11.23;;;;;;;8.41;84.93;99033.63;5000323;28;20049;-64
2022/11/09 03:56:11;;;;;;;23.88;12.45;;;;;;;8.37;84.85;99031.63;5016319;28;20041;-66
2022/11/09 03:58:37;;;;;;;19.95;11.23;;;;;;;8.40;84.46;99036.47;5033792;28;20073;-65
2022/11/09 04:01:03;;;;;;;19.88;11.63;;;;;;;8.41;85.26;99033.63;5016448;28;20041;-66
2022/11/09 04:03:28;;;;;;;21.50;12.02;;;;;;;8.45;84.77;99035.81;5016169;28;20073;-65
2022/11/09 04:05:57;;;;;;;18.80;10.80;;;;;;;8.46;84.02;99037.41;5016344;28;20038;-65
2022/11/09 04:08:23;;;;;;;20.75;11.32;;;;;;;8.43;84.67;99029.94;5033556;28;20046;-65
2022/11/09 04:10:48;;;;;;;21.80;11.65;;;;;;;8.45;85.06;99033.16;5015986;28;20044;-65
2022/11/09 04:13:14;;;;;;;22.55;12.05;;;;;;;8.42;85.48;99031.78;5033890;28;20406;-65
2022/11/09 04:15:41;;;;;;;22.38;11.63;;;;;;;8.42;84.99;99031.78;4999510;28;20049;-64
2022/11/09 04:18:10;;;;;;;23.83;12.80;;;;;;;8.44;84.78;99031.53;4999481;28;20056;-64
2022/11/09 04:20:36;;;;;;;22.02;11.60;;;;;;;8.45;85.10;99030.53;4999158;28;20047;-64
2022/11/09 04:23:04;;;;;;;23.92;12.00;;;;;;;8.44;84.37;99026.25;5014766;28;20136;-65
2022/11/09 04:25:35;;;;;;;20.45;11.07;;;;;;;8.36;84.55;99022.91;5015733;28;20069;-65
2022/11/09 04:28:02;;;;;;;23.92;11.80;;;;;;;8.37;84.68;99023.72;5015605;28;20140;-64
2022/11/09 04:30:29;;;;;;;22.40;11.38;;;;;;;8.37;85.34;99019.22;4982893;28;20099;-64
2022/11/09 04:32:56;;;;;;;20.60;12.07;;;;;;;8.36;85.04;99032.69;5015736;28;20073;-65
2022/11/09 04:35:22;;;;;;;21.88;11.73;;;;;;;8.33;85.38;99028.66;4999434;28;20042;-65
2022/11/09 04:38:10;;;;;;;19.05;11.38;;;;;;;8.37;85.44;99042.19;5015788;28;20130;-66
2022/11/09 04:40:36;;;;;;;17.65;10.88;;;;;;;8.38;84.74;99041.16;5015501;28;20045;-64
2022/11/09 04:43:04;;;;;;;18.58;11.13;;;;;;;8.44;85.20;99042.09;5033519;28;20060;-64
2022/11/09 04:45:32;;;;;;;19.20;10.95;;;;;;;8.49;84.73;99044.84;4983030;28;20037;-65
2022/11/09 04:47:59;;;;;;;23.30;11.60;;;;;;;8.46;85.08;99047.97;4966908;28;20139;-65
2022/11/09 04:50:26;;;;;;;20.83;11.63;;;;;;;8.48;84.59;99051.97;5015719;28;20038;-65
2022/11/09 04:52:51;;;;;;;20.00;11.25;;;;;;;8.46;84.43;99055.88;5015777;28;20044;-64
2022/11/09 04:55:17;;;;;;;16.92;11.20;;;;;;;8.41;84.35;99065.31;4998681;28;20042;-64
2022/11/09 04:57:43;;;;;;;18.45;10.38;;;;;;;8.46;84.86;99058.53;5015142;28;20072;-63
2022/11/09 05:00:09;;;;;;;17.33;9.82;;;;;;;8.48;84.94;99056.47;5032806;28;20041;-65
2022/11/09 05:02:35;;;;;;;19.55;10.15;;;;;;;8.51;84.16;99062.09;5032823;28;20045;-64
2022/11/09 05:05:00;;;;;;;17.52;10.32;;;;;;;8.50;84.39;99055.22;4998823;28;20029;-65
2022/11/09 05:07:26;;;;;;;19.02;10.88;;;;;;;8.45;84.79;99054.28;5014808;28;20041;-65
2022/11/09 05:09:52;;;;;;;19.05;10.85;;;;;;;8.48;84.50;99056.47;5032924;28;20038;-69
2022/11/09 05:12:19;;;;;;;19.83;11.35;;;;;;;8.54;84.79;99058.97;5032620;28;20043;-67
2022/11/09 05:14:44;;;;;;;21.85;12.10;;;;;;;8.64;84.89;99059.19;4998645;28;20044;-67
2022/11/09 05:17:10;;;;;;;18.27;10.65;;;;;;;8.66;84.45;99068.72;4982299;28;20041;-65
2022/11/09 05:19:36;;;;;;;18.55;10.82;;;;;;;8.69;84.13;99065.63;4998189;28;20073;-64
2022/11/09 05:23:57;;;;;;;20.00;11.15;;;;;;;8.71;83.65;99074.13;4998210;28;20379;-63
2022/11/09 05:24:50;;;;;;;22.23;11.68;;;;;;;8.63;84.58;99070.00;5020022;28;20080;-64
2022/11/09 05:27:16;;;;;;;19.00;10.82;;;;;;;8.62;84.38;99068.41;5024369;28;20049;-64
2022/11/09 05:29:41;;;;;;;20.60;11.27;;;;;;;8.67;84.40;99070.34;5040645;28;20506;-66
2022/11/09 05:32:07;;;;;;;20.15;11.27;;;;;;;8.70;84.22;99069.88;5025575;28;20043;-68
2022/11/09 05:34:33;;;;;;;19.25;10.88;;;;;;;8.75;84.60;99070.78;5006882;28;20395;-68
2022/11/09 05:36:59;;;;;;;19.85;11.57;;;;;;;8.73;83.63;99066.75;5024800;28;20036;-65
2022/11/09 05:39:25;;;;;;;20.05;11.23;;;;;;;8.66;84.31;99055.53;5023157;28;20041;-64
2022/11/09 05:41:51;;;;;;;20.45;11.15;;;;;;;8.79;84.10;99066.63;5015038;28;20037;-66
2022/11/09 05:44:17;;;;;;;21.38;11.38;;;;;;;8.82;84.35;99068.00;5034184;28;20068;-66
2022/11/09 05:46:42;;;;;;;19.45;11.45;;;;;;;8.87;82.92;99058.34;5051793;28;20037;-66
2022/11/09 05:49:08;;;;;;;18.90;11.23;;;;;;;8.89;83.37;99066.03;5033911;28;20127;-65
2022/11/09 05:51:34;;;;;;;17.65;11.02;;;;;;;8.92;83.48;99075.34;5051346;28;20044;-64
2022/11/09 05:54:00;;;;;;;17.92;11.10;;;;;;;8.93;83.05;99083.03;5014307;28;20087;-67
2022/11/09 05:56:26;;;;;;;19.98;11.35;;;;;;;8.95;83.05;99080.16;5031742;28;20052;-66
2022/11/09 05:58:52;;;;;;;20.30;10.75;;;;;;;8.94;83.00;99073.25;5031685;28;20057;-65
2022/11/09 06:01:18;;;;;;;20.95;11.23;;;;;;;9.00;83.01;99080.25;5031981;28;20065;-66
2022/11/09 06:03:45;;;;;;;18.73;11.02;;;;;;;9.04;82.50;99084.84;5032063;28;20134;-64
2022/11/09 06:06:13;;;;;;;19.35;10.63;;;;;;;9.03;83.00;99088.53;5014271;28;20549;-65
2022/11/09 06:08:39;;;;;;;18.65;11.18;;;;;;;9.07;82.64;99086.22;5014037;28;20072;-65
2022/11/09 06:11:07;;;;;;;18.83;9.98;;;;;;;9.05;82.41;99085.63;5013881;28;20041;-63
2022/11/09 06:13:34;;;;;;;19.23;10.55;;;;;;;9.07;82.44;99076.44;5031853;28;20131;-62
2022/11/09 06:16:01;;;;;;;19.35;10.23;;;;;;;9.14;82.99;99086.06;5013864;28;20140;-63
2022/11/09 06:18:29;;;;;;;21.42;10.98;;;;;;;9.17;82.29;99090.91;5014148;28;20057;-62
2022/11/09 06:20:57;;;;;;;17.75;10.05;;;;;;;9.20;81.86;99085.94;5031052;28;20045;-64
2022/11/09 06:23:25;;;;;;;17.20;10.60;;;;;;;9.10;82.46;99097.13;5012247;28;20073;-62
2022/11/09 06:26:02;;;;;;;18.95;10.77;;;;;;;9.13;82.67;99095.06;5008690;28;20048;-61
2022/11/09 06:28:28;;;;;;;22.63;11.60;;;;;;;9.16;82.75;99094.59;5009982;28;20090;-63
2022/11/09 06:30:57;;;;;;;17.25;9.88;;;;;;;9.16;83.00;99097.22;5012416;28;20041;-63
2022/11/09 06:33:24;;;;;;;19.48;10.55;;;;;;;9.25;82.97;99104.53;5012265;28;20419;-63
2022/11/09 06:35:49;;;;;;;19.38;10.90;;;;;;;9.16;82.79;99102.53;5009824;28;20045;-64
2022/11/09 06:38:15;;;;;;;20.85;10.82;;;;;;;9.15;83.58;99108.81;4994971;28;20049;-64
2022/11/09 06:40:41;;;;;;;17.00;10.40;;;;;;;9.19;83.04;99110.78;5011720;28;20044;-64
2022/11/09 06:43:06;;;;;;;19.77;11.35;;;;;;;9.18;83.88;99103.91;5028919;28;20137;-64
2022/11/09 06:45:32;;;;;;;19.85;10.38;;;;;;;9.05;83.98;99110.25;5015971;28;20494;-65
2022/11/09 06:48:01;;;;;;;19.02;10.40;;;;;;;9.17;83.77;99114.69;5042599;28;20041;-64
2022/11/09 06:50:30;;;;;;;16.55;9.50;;;;;;;9.20;83.83;99122.16;4989254;28;20054;-64
2022/11/09 06:52:57;;;;;;;15.98;10.55;;;;;;;9.23;83.74;99124.34;5045071;28;20111;-64
2022/11/09 06:55:23;;;;;;;17.25;9.85;;;;;;;9.25;83.56;99124.91;5026623;28;20209;-64
2022/11/09 06:57:48;;;;;;;19.40;10.48;;;;;;;9.31;83.48;99129.25;5026020;28;20180;-66
2022/11/09 07:00:15;;;;;;;16.70;9.80;;;;;;;9.41;83.60;99129.47;5045501;28;20123;-64
2022/11/09 07:02:41;;;;;;;17.65;9.93;;;;;;;9.51;83.16;99134.94;5027519;28;20033;-68
2022/11/09 07:05:07;;;;;;;15.43;9.65;;;;;;;9.50;82.56;99138.63;5002977;28;20521;-65
2022/11/09 07:07:33;;;;;;;16.58;9.73;;;;;;;9.58;82.39;99137.44;5000778;28;20060;-65
2022/11/09 07:12:56;;;;;;;17.00;9.85;;;;;;;9.59;83.14;99144.34;4998478;28;20042;-65
2022/11/09 07:15:25;;;;;;;16.35;9.27;;;;;;;9.57;82.60;99132.41;4981341;28;20034;-64
2022/11/09 07:18:11;;;;;;;17.88;9.20;;;;;;;9.63;82.83;99131.44;4963353;28;20042;-66
2022/11/09 07:20:37;;;;;;;18.15;10.02;;;;;;;9.64;82.90;99131.19;4999803;28;20077;-65
2022/11/09 07:23:03;;;;;;;17.65;9.90;;;;;;;9.71;82.49;99139.00;5002359;28;20095;-67
2022/11/09 07:25:29;;;;;;;17.30;9.98;;;;;;;9.63;82.10;99142.03;5014761;28;20057;-66
2022/11/09 07:28:04;;;;;;;17.17;9.60;;;;;;;9.59;82.50;99148.81;4985983;28;20037;-66
2022/11/09 07:30:29;;;;;;;14.68;9.18;;;;;;;9.66;82.48;99155.59;5019107;28;20514;-65
2022/11/09 07:32:58;;;;;;;22.83;9.55;;;;;;;9.65;82.40;99140.75;5013067;28;20033;-65
2022/11/09 07:35:24;;;;;;;17.60;9.50;;;;;;;9.67;82.70;99154.53;5012902;28;20045;-67
2022/11/09 07:37:50;;;;;;;17.95;9.95;;;;;;;9.63;81.82;99148.13;5014370;28;20576;-64
2022/11/09 07:40:19;;;;;;;19.02;9.98;;;;;;;9.59;83.39;99148.81;5013121;28;20045;-64
2022/11/09 07:42:46;;;;;;;16.85;9.43;;;;;;;9.64;82.60;99147.06;5012615;28;20042;-63
2022/11/09 07:45:14;;;;;;;17.70;9.38;;;;;;;9.60;82.71;99139.84;4996505;28;20128;-64
2022/11/09 07:47:39;;;;;;;18.15;9.70;;;;;;;9.64;83.37;99141.78;4996623;28;20133;-64
2022/11/09 07:50:05;;;;;;;17.10;9.38;;;;;;;9.68;82.76;99142.94;5014015;28;20038;-63
2022/11/09 07:52:31;;;;;;;18.70;9.57;;;;;;;9.66;83.17;99146.84;5014179;28;20088;-65
2022/11/09 07:54:57;;;;;;;18.27;9.50;;;;;;;9.61;82.76;99155.47;5013304;28;20048;-63
2022/11/09 07:57:23;;;;;;;15.50;8.90;;;;;;;9.60;83.09;99151.25;4991579;28;20037;-64
2022/11/09 07:59:50;;;;;;;16.75;10.32;;;;;;;9.58;83.98;99155.97;4961549;28;20037;-65
2022/11/09 08:02:22;;;;;;;18.50;10.38;;;;;;;9.61;83.07;99152.03;4976532;28;20069;-63
2022/11/09 08:04:49;;;;;;;15.10;9.38;;;;;;;9.61;83.82;99159.97;5011297;28;20499;-64
2022/11/09 08:07:14;;;;;;;17.30;9.55;;;;;;;9.63;82.82;99160.56;4994477;28;20410;-63
2022/11/09 08:09:40;;;;;;;16.52;9.27;;;;;;;9.65;83.42;99151.34;5011520;28;20037;-63
2022/11/09 08:12:05;;;;;;;19.48;10.40;;;;;;;9.67;83.36;99159.81;5010229;28;20507;-64
2022/11/09 08:14:32;;;;;;;18.75;9.93;;;;;;;9.74;83.42;99157.84;4991002;28;20049;-67
2022/11/09 08:16:58;;;;;;;17.42;9.80;;;;;;;9.73;83.82;99164.16;4994195;28;20418;-63
2022/11/09 08:19:23;;;;;;;19.25;9.98;;;;;;;9.76;83.56;99158.44;4993221;28;20038;-65
2022/11/09 08:21:49;;;;;;;20.17;10.30;;;;;;;9.86;83.07;99162.28;4992398;28;20090;-63
2022/11/09 08:24:15;;;;;;;17.75;10.35;;;;;;;9.91;82.68;99157.91;4993094;28;20046;-65
2022/11/09 08:26:40;;;;;;;14.85;9.15;;;;;;;9.98;82.20;99163.03;4977477;28;20080;-64
2022/11/09 08:29:06;;;;;;;16.52;9.35;;;;;;;9.96;82.77;99168.56;5010895;28;20066;-65
2022/11/09 08:31:32;;;;;;;18.45;9.95;;;;;;;10.00;82.17;99174.19;5008478;28;20589;-63
2022/11/09 08:33:58;;;;;;;17.90;9.75;;;;;;;9.95;82.49;99164.31;4975296;28;20042;-68
2022/11/09 08:36:25;;;;;;;15.98;9.75;;;;;;;9.95;81.91;99159.00;4943717;28;20108;-65
2022/11/09 08:38:50;;;;;;;19.98;9.95;;;;;;;9.97;82.58;99161.41;4976656;28;20045;-66
2022/11/09 08:41:16;;;;;;;20.85;9.85;;;;;;;10.00;81.97;99161.75;5010613;28;20422;-65
2022/11/09 08:43:42;;;;;;;17.80;8.80;;;;;;;10.01;82.64;99159.91;5010626;28;20438;-66
2022/11/09 08:46:07;;;;;;;16.65;10.32;;;;;;;9.90;81.71;99158.13;4977268;28;20475;-66
2022/11/09 08:48:33;;;;;;;16.45;9.88;;;;;;;9.86;82.89;99160.44;5008701;28;20065;-66
2022/11/09 08:50:59;;;;;;;15.93;8.95;;;;;;;9.94;82.68;99157.41;4994584;28;20053;-65
2022/11/09 08:53:26;;;;;;;15.85;9.60;;;;;;;9.91;82.32;99144.66;5010840;28;20081;-66
2022/11/09 08:55:52;;;;;;;16.65;8.73;;;;;;;10.01;82.65;99155.41;5009626;28;20056;-65
2022/11/09 08:58:18;;;;;;;17.35;9.15;;;;;;;10.03;82.27;99160.47;4992886;28;20416;-65
2022/11/09 09:00:44;;;;;;;16.48;9.57;;;;;;;10.12;82.29;99156.41;5011188;28;20499;-65
2022/11/09 09:03:10;;;;;;;15.35;9.43;;;;;;;10.13;81.97;99159.84;5010124;28;20077;-67
2022/11/09 09:05:36;;;;;;;16.00;9.70;;;;;;;10.14;82.34;99158.78;5009901;28;20524;-65
2022/11/09 09:08:03;;;;;;;16.38;8.77;;;;;;;10.13;81.73;99150.03;4991907;28;20102;-65
2022/11/09 09:10:31;;;;;;;19.33;9.95;;;;;;;10.14;81.90;99156.13;4959463;28;20137;-66
2022/11/09 09:12:57;;;;;;;14.80;8.48;;;;;;;10.12;81.79;99159.03;4962126;28;20038;-65
2022/11/09 09:15:23;;;;;;;15.07;8.75;;;;;;;10.12;82.24;99161.69;5008945;28;20048;-64
2022/11/09 09:17:53;;;;;;;15.25;9.23;;;;;;;10.10;82.27;99160.31;5008700;28;20029;-63
2022/11/09 09:20:23;;;;;;;17.30;8.82;;;;;;;10.04;82.72;99159.44;4955977;28;20037;-64
2022/11/09 09:22:49;;;;;;;15.35;9.73;;;;;;;9.96;82.50;99155.31;4993760;28;20095;-62
2022/11/09 09:25:15;;;;;;;15.13;9.05;;;;;;;10.02;83.01;99158.84;5011032;28;20041;-64
2022/11/09 09:27:42;;;;;;;13.98;8.30;;;;;;;10.04;82.60;99162.06;5011212;28;20133;-64
2022/11/09 09:30:09;;;;;;;16.27;9.25;;;;;;;9.99;83.02;99160.13;4992672;28;20050;-63
2022/11/09 09:32:34;;;;;;;18.10;9.55;;;;;;;9.95;83.16;99156.38;4977418;28;20100;-64
2022/11/09 09:35:00;;;;;;;16.60;8.90;;;;;;;9.95;83.48;99155.56;4991407;28;20046;-64
2022/11/09 09:37:28;;;;;;;15.60;9.45;;;;;;;9.97;83.04;99158.75;4990768;28;20049;-64
2022/11/09 09:39:54;;;;;;;17.58;10.00;;;;;;;9.95;84.12;99150.28;5009769;28;20133;-65
2022/11/09 09:42:27;;;;;;;17.80;9.05;;;;;;;9.89;83.92;99149.38;4991843;28;20470;-64
2022/11/09 09:45:00;;;;;;;17.65;9.48;;;;;;;9.99;83.65;99143.44;4990638;28;20065;-63
2022/11/09 09:47:47;;;;;;;18.48;11.90;;;;;;;9.98;83.11;99155.09;5009294;28;20144;-64
2022/11/09 09:50:17;;;;;;;16.10;10.02;;;;;;;9.98;83.82;99145.31;5026835;28;20053;-64
2022/11/09 09:53:00;;;;;;;17.70;9.07;;;;;;;9.99;83.50;99146.88;5010691;28;20037;-63
2022/11/09 09:55:46;;;;;;;14.93;8.93;;;;;;;10.03;84.19;99155.19;5028888;28;20502;-62
2022/11/09 09:58:36;;;;;;;16.42;9.57;;;;;;;10.04;83.83;99150.69;5011762;28;20088;-63
2022/11/09 10:01:16;;;;;;;22.60;10.30;;;;;;;10.02;83.99;99150.91;5014533;28;20048;-62
2022/11/09 10:03:42;;;;;;;18.85;10.18;;;;;;;10.03;84.29;99155.19;5009909;28;20439;-63
2022/11/09 10:06:16;;;;;;;18.85;10.13;;;;;;;10.13;83.90;99159.84;5011027;28;20057;-62
2022/11/09 10:08:54;;;;;;;16.75;9.70;;;;;;;10.10;83.85;99147.06;5010448;28;20072;-63
2022/11/09 10:11:20;;;;;;;22.15;10.48;;;;;;;10.10;83.88;99152.38;5029128;28;20122;-64
2022/11/09 10:13:59;;;;;;;18.50;9.65;;;;;;;10.02;83.94;99145.63;5012119;28;20072;-64
2022/11/09 10:16:30;;;;;;;18.38;10.02;;;;;;;10.09;84.17;99153.41;5008525;28;20045;-63
2022/11/09 10:19:30;;;;;;;16.08;9.27;;;;;;;10.14;83.36;99156.13;5011327;28;20057;-61
2022/11/09 10:22:19;;;;;;;16.73;9.82;;;;;;;10.08;83.41;99159.75;5012426;28;20096;-63
2022/11/09 10:24:54;;;;;;;17.95;9.68;;;;;;;10.06;84.15;99162.66;4996444;28;20037;-63
2022/11/09 10:27:32;;;;;;;19.83;10.15;;;;;;;10.04;84.19;99156.78;5029368;28;20053;-62
2022/11/09 10:29:58;;;;;;;16.17;9.18;;;;;;;10.01;84.39;99149.31;5028191;28;20083;-63
2022/11/09 10:32:24;;;;;;;15.52;8.45;;;;;;;10.06;83.64;99165.31;5012249;28;20104;-63
2022/11/09 10:35:06;;;;;;;15.15;8.50;;;;;;;10.00;84.78;99159.13;5026386;28;20072;-64
2022/11/09 10:37:37;;;;;;;14.70;8.88;;;;;;;10.05;84.90;99157.56;4993208;28;20053;-63
2022/11/09 10:40:28;;;;;;;16.15;8.65;;;;;;;10.15;84.70;99161.22;5010463;28;20132;-63
2022/11/09 10:43:13;;;;;;;13.07;8.57;;;;;;;10.15;84.00;99155.13;5011998;28;20132;-63
2022/11/09 10:46:07;;;;;;;13.90;8.13;;;;;;;10.20;84.42;99155.19;5025501;28;20510;-61
2022/11/09 10:48:53;;;;;;;14.80;7.85;;;;;;;10.23;84.12;99160.00;5013727;28;20130;-63
2022/11/09 10:51:37;;;;;;;13.40;7.50;;;;;;;10.24;83.78;99159.78;5013228;28;20792;-63
2022/11/09 10:54:36;;;;;;;13.02;7.65;;;;;;;10.16;84.62;99157.50;5028582;28;20426;-63
2022/11/09 10:57:22;;;;;;;14.10;7.72;;;;;;;10.06;86.47;99152.06;4997700;28;20107;-62
2022/11/09 11:00:16;;;;;;;14.57;7.68;;;;;;;9.99;85.76;99152.19;5029374;28;20048;-63
2022/11/09 11:03:16;;;;;;;13.50;8.38;;;;;;;9.99;85.97;99161.97;5011747;28;20422;-63
2022/11/09 11:06:11;;;;;;;12.52;8.23;;;;;;;10.00;85.88;99164.41;5028827;28;20521;-64
2022/11/09 11:09:04;;;;;;;15.80;8.15;;;;;;;10.00;85.86;99159.13;5029178;28;20459;-63
2022/11/09 11:12:26;;;;;;;12.88;7.82;;;;;;;9.95;85.77;99155.56;5028293;28;20049;-62
2022/11/09 11:15:22;;;;;;;15.18;8.35;;;;;;;9.91;86.13;99155.25;4997864;28;20041;-62
2022/11/09 11:18:23;;;;;;;16.40;8.57;;;;;;;9.84;87.22;99146.63;5014122;28;20145;-66
2022/11/09 11:21:22;;;;;;;14.32;8.13;;;;;;;9.93;86.73;99162.94;5015300;28;20136;-64
2022/11/09 11:24:19;;;;;;;14.18;7.75;;;;;;;9.95;86.22;99147.63;5001154;28;20124;-65
2022/11/09 11:27:19;;;;;;;14.80;8.40;;;;;;;10.02;86.04;99157.00;5000823;28;20088;-65
2022/11/09 11:30:05;;;;;;;17.40;8.70;;;;;;;9.96;86.44;99154.53;5000710;28;20123;-64
2022/11/09 11:32:50;;;;;;;12.98;7.95;;;;;;;9.94;86.07;99151.28;5017514;28;20049;-64
2022/11/09 11:35:44;;;;;;;15.50;8.23;;;;;;;10.02;86.46;99148.25;5032900;28;20045;-63
2022/11/09 11:38:33;;;;;;;13.75;8.15;;;;;;;9.94;87.24;99141.53;5015089;28;20049;-64
2022/11/09 11:41:34;;;;;;;14.67;8.27;;;;;;;10.00;87.38;99151.16;5014149;28;20136;-64
2022/11/09 11:44:43;;;;;;;14.02;8.15;;;;;;;9.96;86.96;99149.22;5032413;28;20045;-64